Time;durP1;ratioP1;P1;durP2;ratioP2;P2;SDS_P1;SDS_P2;PMS_P1;PMS_P2;Temp;Humidity;BMP_temperature;BMP_pressure;BME280_temperature;BME280_humidity;BME280_pressure;Samples;Min_cycle;Max_cycle;Signal;HPM_P1;HPM_P2
2022/07/02 00:02:02;;;;;;;1.33;1.23;;;26.00;67.40;;;;;;5014143;28;20486;-83
2022/07/02 00:04:32;;;;;;;1.20;1.10;;;26.00;67.40;;;;;;5014130;28;20444;-87
2022/07/02 00:06:59;;;;;;;1.23;1.10;;;26.00;67.40;;;;;;5014028;28;20950;-89
2022/07/02 00:09:27;;;;;;;1.57;1.47;;;26.00;67.30;;;;;;5013912;28;20451;-82
2022/07/02 00:11:58;;;;;;;1.50;1.40;;;26.00;67.30;;;;;;5014043;28;20451;-88
2022/07/02 00:14:25;;;;;;;1.53;1.27;;;26.00;67.40;;;;;;5013763;28;20446;-81
2022/07/02 00:16:52;;;;;;;1.50;1.30;;;26.00;67.30;;;;;;5013673;28;20444;-81
2022/07/02 00:19:21;;;;;;;1.67;1.13;;;26.00;67.20;;;;;;5013788;28;20519;-81
2022/07/02 00:21:49;;;;;;;1.30;1.10;;;26.00;67.20;;;;;;5013574;28;20443;-88
2022/07/02 00:24:16;;;;;;;3.03;1.60;;;26.00;67.20;;;;;;5013661;28;20938;-87
2022/07/02 00:26:50;;;;;;;1.10;0.97;;;26.00;67.20;;;;;;5013598;28;20471;-80
2022/07/02 00:29:22;;;;;;;1.60;1.40;;;26.00;67.20;;;;;;5013754;28;20466;-88
2022/07/02 00:31:49;;;;;;;1.17;0.97;;;26.00;67.10;;;;;;5014051;28;20465;-82
2022/07/02 00:34:18;;;;;;;1.30;1.10;;;26.00;67.20;;;;;;5013893;28;20454;-81
2022/07/02 00:36:46;;;;;;;1.33;1.23;;;26.00;67.10;;;;;;5013472;28;20471;-86
2022/07/02 00:39:13;;;;;;;1.33;1.23;;;26.00;67.00;;;;;;5013786;28;20530;-82
2022/07/02 00:41:41;;;;;;;1.30;1.03;;;26.00;67.10;;;;;;5013539;28;20465;-82
2022/07/02 00:44:08;;;;;;;1.10;1.00;;;26.00;67.00;;;;;;5013479;28;20501;-80
2022/07/02 00:46:37;;;;;;;1.20;1.10;;;26.00;66.90;;;;;;5013670;28;20780;-84
2022/07/02 00:49:04;;;;;;;1.20;1.10;;;26.00;66.90;;;;;;5013672;28;20439;-88
2022/07/02 00:51:33;;;;;;;1.20;1.00;;;26.00;66.90;;;;;;5015721;28;20435;-81
2022/07/02 00:54:08;;;;;;;1.50;1.10;;;26.00;67.00;;;;;;5013545;28;20443;-88
2022/07/02 00:56:34;;;;;;;1.40;1.10;;;26.10;67.00;;;;;;5013461;28;20450;-81
2022/07/02 00:59:03;;;;;;;1.40;1.20;;;26.00;67.00;;;;;;5013327;28;20442;-88
2022/07/02 01:01:30;;;;;;;1.43;1.10;;;26.00;66.90;;;;;;5013426;28;20440;-88
2022/07/02 01:04:00;;;;;;;1.10;1.00;;;26.00;66.90;;;;;;5013288;28;20494;-82
2022/07/02 01:06:28;;;;;;;1.53;1.10;;;26.00;67.00;;;;;;5015534;28;20559;-81
2022/07/02 01:11:43;;;;;;;1.30;1.20;;;26.00;67.00;;;;;;5017222;28;20929;-81
2022/07/02 01:14:12;;;;;;;1.10;0.97;;;26.00;67.10;;;;;;5017218;28;20930;-84
2022/07/02 01:16:39;;;;;;;1.10;1.00;;;26.00;66.90;;;;;;5016934;28;20442;-81
2022/07/02 01:19:06;;;;;;;1.77;1.30;;;26.00;66.90;;;;;;5016896;28;20446;-89
2022/07/02 01:21:33;;;;;;;1.13;1.03;;;26.00;66.90;;;;;;5017176;28;20534;-83
2022/07/02 01:24:01;;;;;;;1.10;1.00;;;26.00;67.00;;;;;;5017061;28;20578;-88
2022/07/02 01:26:28;;;;;;;1.40;1.30;;;26.00;67.00;;;;;;5016633;28;20443;-88
2022/07/02 01:28:54;;;;;;;1.17;1.07;;;26.00;67.00;;;;;;5017140;28;20443;-89
2022/07/02 01:31:23;;;;;;;1.30;1.10;;;26.00;67.00;;;;;;5016506;28;20919;-83
2022/07/02 01:33:50;;;;;;;1.50;1.10;;;26.00;66.90;;;;;;5016869;28;20447;-82
2022/07/02 01:36:17;;;;;;;1.40;1.17;;;26.00;67.00;;;;;;5016744;28;20477;-82
2022/07/02 01:38:43;;;;;;;1.20;1.00;;;26.00;67.00;;;;;;5016899;28;20867;-82
2022/07/02 01:44:01;;;;;;;1.40;1.20;;;26.00;67.00;;;;;;5015759;28;20491;-87
2022/07/02 01:46:28;;;;;;;1.00;0.90;;;26.00;66.90;;;;;;5017009;28;20438;-81
2022/07/02 01:48:55;;;;;;;1.40;1.13;;;26.00;67.00;;;;;;5016521;28;20945;-81
2022/07/02 01:51:23;;;;;;;1.10;0.97;;;26.00;67.00;;;;;;5016699;28;20539;-81
2022/07/02 01:53:50;;;;;;;1.10;1.00;;;26.00;66.90;;;;;;5016448;28;20454;-87
2022/07/02 01:56:18;;;;;;;1.40;1.30;;;26.00;66.80;;;;;;5016822;28;20447;-80
2022/07/02 01:58:45;;;;;;;1.23;1.07;;;26.00;66.80;;;;;;5017005;28;20472;-81
2022/07/02 02:01:12;;;;;;;1.30;1.20;;;26.00;66.80;;;;;;5018649;28;20487;-80
2022/07/02 02:03:39;;;;;;;1.83;1.10;;;26.00;66.80;;;;;;5023676;28;20570;-88
2022/07/02 02:06:06;;;;;;;1.17;0.90;;;26.00;66.90;;;;;;5019980;28;20475;-88
2022/07/02 02:08:32;;;;;;;1.30;1.20;;;26.00;66.80;;;;;;5016277;28;20451;-81
2022/07/02 02:10:59;;;;;;;1.10;1.00;;;26.00;66.80;;;;;;5015933;28;20487;-82
2022/07/02 02:13:27;;;;;;;1.37;1.00;;;26.00;66.90;;;;;;5015734;28;20483;-83
2022/07/02 02:15:55;;;;;;;1.90;1.13;;;26.00;66.70;;;;;;5016034;28;20597;-84
2022/07/02 02:18:22;;;;;;;1.07;0.90;;;26.00;67.70;;;;;;5014548;28;20845;-82
2022/07/02 02:20:49;;;;;;;1.43;1.23;;;26.00;66.90;;;;;;5016056;28;20468;-82
2022/07/02 02:23:19;;;;;;;1.27;1.17;;;26.00;66.80;;;;;;5015621;28;20493;-82
2022/07/02 02:25:46;;;;;;;1.37;1.10;;;26.00;66.80;;;;;;5015885;28;20443;-87
2022/07/02 02:28:12;;;;;;;1.20;0.93;;;26.00;66.80;;;;;;5015849;28;20566;-82
2022/07/02 02:30:41;;;;;;;1.30;1.10;;;26.00;66.90;;;;;;5015724;28;20440;-88
2022/07/02 02:33:08;;;;;;;2.10;1.00;;;26.00;66.90;;;;;;5015754;28;20478;-82
2022/07/02 02:35:34;;;;;;;1.07;0.97;;;25.90;66.90;;;;;;5015461;28;20526;-82
2022/07/02 02:38:01;;;;;;;1.20;0.90;;;25.90;66.90;;;;;;5015346;28;20468;-88
2022/07/02 02:40:28;;;;;;;1.30;1.10;;;25.90;66.80;;;;;;5015624;28;20447;-82
2022/07/02 02:42:55;;;;;;;1.13;1.00;;;26.00;67.00;;;;;;5015290;28;20825;-82
2022/07/02 02:45:22;;;;;;;1.10;0.97;;;25.90;66.80;;;;;;5015662;28;20878;-81
2022/07/02 02:47:50;;;;;;;1.60;1.10;;;25.90;66.80;;;;;;5015796;28;20543;-88
2022/07/02 02:50:17;;;;;;;1.10;1.00;;;26.00;67.00;;;;;;5015148;28;20527;-88
2022/07/02 02:52:44;;;;;;;1.20;1.10;;;26.00;66.80;;;;;;5015150;28;20474;-81
2022/07/02 02:55:10;;;;;;;1.10;0.93;;;26.00;66.80;;;;;;5015144;28;20511;-81
2022/07/02 02:57:37;;;;;;;1.10;0.90;;;26.00;66.90;;;;;;5015439;28;20520;-82
2022/07/02 03:00:05;;;;;;;1.10;1.00;;;25.90;66.90;;;;;;5015168;28;20945;-82
2022/07/02 03:02:32;;;;;;;1.10;0.97;;;25.90;66.90;;;;;;5014903;28;20535;-81
2022/07/02 03:05:02;;;;;;;1.40;1.30;;;25.90;66.90;;;;;;5014749;28;20444;-82
2022/07/02 03:07:28;;;;;;;1.20;1.00;;;25.90;66.90;;;;;;5014792;28;20522;-82
2022/07/02 03:09:55;;;;;;;1.00;0.90;;;26.00;66.90;;;;;;5014950;28;20448;-82
2022/07/02 03:12:22;;;;;;;1.10;1.00;;;25.90;66.80;;;;;;5014815;28;20443;-81
2022/07/02 03:14:49;;;;;;;1.30;1.20;;;25.90;66.80;;;;;;5014824;28;20535;-82
2022/07/02 03:17:16;;;;;;;1.10;0.90;;;25.90;66.90;;;;;;5014807;28;20531;-88
2022/07/02 03:19:43;;;;;;;1.20;1.10;;;25.90;66.90;;;;;;5014811;28;20526;-89
2022/07/02 03:22:11;;;;;;;1.20;1.10;;;25.90;66.70;;;;;;5014772;28;20923;-88
2022/07/02 03:24:38;;;;;;;1.20;1.07;;;25.90;66.90;;;;;;5014774;28;20497;-85
2022/07/02 03:27:06;;;;;;;1.10;1.00;;;25.90;66.80;;;;;;5014275;28;21085;-88
2022/07/02 03:29:32;;;;;;;1.10;0.90;;;25.90;66.80;;;;;;5015942;28;20872;-82
2022/07/02 03:31:59;;;;;;;1.30;1.10;;;25.90;66.50;;;;;;5014603;28;20998;-81
2022/07/02 03:34:26;;;;;;;1.20;1.07;;;25.90;66.50;;;;;;5014619;28;20534;-89
2022/07/02 03:36:53;;;;;;;1.10;0.93;;;25.90;66.60;;;;;;5014051;28;20469;-82
2022/07/02 03:39:21;;;;;;;1.20;1.00;;;25.90;66.80;;;;;;5014592;28;20534;-88
2022/07/02 03:41:48;;;;;;;2.07;1.40;;;25.90;66.70;;;;;;5014122;28;20502;-82
2022/07/02 03:44:15;;;;;;;1.17;1.03;;;25.90;66.90;;;;;;5014238;28;20494;-89
2022/07/02 03:46:41;;;;;;;1.23;1.00;;;25.90;66.70;;;;;;5014424;28;20515;-88
2022/07/02 03:49:08;;;;;;;1.10;1.00;;;25.90;66.90;;;;;;5014203;28;20870;-82
2022/07/02 03:51:35;;;;;;;1.13;0.90;;;25.90;66.90;;;;;;5014296;28;20446;-81
2022/07/02 03:54:02;;;;;;;1.10;1.00;;;25.90;66.80;;;;;;5014209;28;20531;-88
2022/07/02 03:56:30;;;;;;;1.03;0.90;;;25.90;67.00;;;;;;5014264;28;20547;-82
2022/07/02 03:59:00;;;;;;;1.10;1.00;;;25.90;66.90;;;;;;5014312;28;20478;-82
2022/07/02 04:01:26;;;;;;;1.30;1.20;;;25.90;67.80;;;;;;5014184;28;20447;-82
2022/07/02 04:03:53;;;;;;;1.00;0.90;;;25.90;66.80;;;;;;5014109;28;20491;-86
2022/07/02 04:06:20;;;;;;;1.13;1.03;;;25.90;66.80;;;;;;5013748;28;21055;-81
2022/07/02 04:08:47;;;;;;;1.20;1.07;;;25.80;66.70;;;;;;5014323;28;20898;-88
2022/07/02 04:11:14;;;;;;;1.10;1.00;;;25.90;66.80;;;;;;5013722;28;20474;-82
2022/07/02 04:13:42;;;;;;;1.07;0.93;;;25.90;66.80;;;;;;5013780;28;20450;-81
2022/07/02 04:16:09;;;;;;;1.20;1.10;;;25.90;66.80;;;;;;5013767;28;20543;-83
2022/07/02 04:18:36;;;;;;;1.07;0.97;;;25.80;66.70;;;;;;5013673;28;20494;-83
2022/07/02 04:21:03;;;;;;;1.10;0.97;;;25.90;66.80;;;;;;5014111;28;20444;-89
2022/07/02 04:23:30;;;;;;;1.07;0.97;;;25.90;66.80;;;;;;5013777;28;20475;-81
2022/07/02 04:25:57;;;;;;;1.13;1.03;;;25.90;66.80;;;;;;5013569;28;20483;-81
2022/07/02 04:28:25;;;;;;;1.23;1.13;;;25.90;66.90;;;;;;5013657;28;20503;-88
2022/07/02 04:30:54;;;;;;;1.23;1.10;;;25.90;66.90;;;;;;5013738;28;20439;-85
2022/07/02 04:33:20;;;;;;;1.30;1.00;;;25.90;66.90;;;;;;5013774;28;20530;-87
2022/07/02 04:35:47;;;;;;;1.10;1.00;;;25.90;67.00;;;;;;5013298;28;20534;-87
2022/07/02 04:38:14;;;;;;;1.30;1.20;;;25.80;67.70;;;;;;5013994;28;20534;-82
2022/07/02 04:40:41;;;;;;;1.27;1.17;;;25.90;66.90;;;;;;5014517;28;20959;-82
2022/07/02 04:43:08;;;;;;;1.40;1.30;;;25.80;66.80;;;;;;5017640;28;20443;-82
2022/07/02 04:45:36;;;;;;;1.10;0.97;;;25.90;66.90;;;;;;5017518;28;20530;-82
2022/07/02 04:48:04;;;;;;;1.37;1.17;;;25.80;66.70;;;;;;5017641;28;20546;-88
2022/07/02 04:50:31;;;;;;;1.30;1.20;;;25.90;66.90;;;;;;5017864;28;20432;-82
2022/07/02 04:52:59;;;;;;;1.37;1.27;;;25.80;66.70;;;;;;5017477;28;20530;-81
2022/07/02 04:55:26;;;;;;;1.40;1.10;;;25.80;66.80;;;;;;5017403;28;20479;-83
2022/07/02 04:57:53;;;;;;;1.30;1.10;;;25.80;66.80;;;;;;5021870;28;20510;-83
2022/07/02 05:00:20;;;;;;;1.23;1.13;;;25.90;67.00;;;;;;5025867;28;20485;-82
2022/07/02 05:02:47;;;;;;;1.37;1.00;;;25.80;66.90;;;;;;5018178;28;20965;-88
2022/07/02 05:05:15;;;;;;;1.17;1.00;;;25.90;67.00;;;;;;5017119;28;21080;-81
2022/07/02 05:07:42;;;;;;;1.10;0.90;;;25.80;66.90;;;;;;5017168;28;20815;-82
2022/07/02 05:10:09;;;;;;;1.07;0.90;;;25.90;67.00;;;;;;5017677;28;20530;-87
2022/07/02 05:12:36;;;;;;;1.70;1.10;;;25.90;66.90;;;;;;5017152;28;20440;-88
2022/07/02 05:15:03;;;;;;;1.30;1.20;;;25.90;66.90;;;;;;5016910;28;20474;-81
2022/07/02 05:17:30;;;;;;;1.10;1.00;;;25.90;67.00;;;;;;5017080;28;20442;-81
2022/07/02 05:19:57;;;;;;;1.30;1.10;;;25.90;67.00;;;;;;5016906;28;20526;-84
2022/07/02 05:22:25;;;;;;;1.20;1.10;;;25.90;67.80;;;;;;5016838;28;20444;-81
2022/07/02 05:24:52;;;;;;;1.20;1.10;;;25.90;67.00;;;;;;5017025;28;20523;-82
2022/07/02 05:27:19;;;;;;;1.20;1.10;;;25.90;67.10;;;;;;5016616;28;20576;-88
2022/07/02 05:29:46;;;;;;;1.10;0.97;;;25.80;66.90;;;;;;5016730;28;20443;-88
2022/07/02 05:32:13;;;;;;;1.30;1.20;;;25.90;67.00;;;;;;5016649;28;20771;-82
2022/07/02 05:34:40;;;;;;;1.07;0.97;;;25.90;67.00;;;;;;5016683;28;20475;-88
2022/07/02 05:37:06;;;;;;;1.00;0.90;;;25.90;67.00;;;;;;5016350;28;20977;-88
2022/07/02 05:39:35;;;;;;;1.20;1.00;;;25.90;67.00;;;;;;5016494;28;20530;-89
2022/07/02 05:42:01;;;;;;;1.10;0.93;;;25.90;67.00;;;;;;5016264;28;20534;-87
2022/07/02 05:44:28;;;;;;;1.40;1.30;;;25.80;66.90;;;;;;5016459;28;20578;-82
2022/07/02 05:46:55;;;;;;;1.00;0.83;;;25.90;67.00;;;;;;5016323;28;20451;-81
2022/07/02 05:49:22;;;;;;;1.20;1.10;;;25.80;66.90;;;;;;5016337;28;20440;-82
2022/07/02 05:51:49;;;;;;;1.10;1.00;;;25.80;66.90;;;;;;5015906;28;20531;-81
2022/07/02 05:54:16;;;;;;;1.30;1.10;;;25.90;67.00;;;;;;5016034;28;20543;-87
2022/07/02 05:56:44;;;;;;;1.20;1.10;;;25.80;66.90;;;;;;5016642;28;20444;-82
2022/07/02 05:59:11;;;;;;;1.30;1.10;;;25.80;66.90;;;;;;5016363;28;20506;-82
2022/07/02 06:01:38;;;;;;;1.10;1.00;;;25.90;67.10;;;;;;5016222;28;20522;-88
2022/07/02 06:04:05;;;;;;;1.00;0.80;;;25.80;66.90;;;;;;5015846;28;21058;-82
2022/07/02 06:09:16;;;;;;;1.67;1.17;;;25.80;67.50;;;;;;5016668;28;20436;-88
2022/07/02 06:11:44;;;;;;;2.13;1.10;;;25.80;66.70;;;;;;5015948;28;20997;-82
2022/07/02 06:14:11;;;;;;;1.40;1.00;;;25.80;66.90;;;;;;5015919;28;20450;-82
2022/07/02 06:16:38;;;;;;;1.20;1.03;;;25.80;67.70;;;;;;5015857;28;20446;-82
2022/07/02 06:19:06;;;;;;;1.30;1.17;;;25.80;66.80;;;;;;5016009;28;21007;-82
2022/07/02 06:21:33;;;;;;;1.20;0.97;;;25.80;66.70;;;;;;5015767;28;20494;-81
2022/07/02 06:24:00;;;;;;;0.90;0.80;;;25.80;67.60;;;;;;5015544;28;20479;-87
2022/07/02 06:26:27;;;;;;;1.40;1.00;;;25.80;66.80;;;;;;5015681;28;20444;-82
2022/07/02 06:28:55;;;;;;;1.07;0.97;;;25.80;66.80;;;;;;5015553;28;20494;-81
2022/07/02 06:31:25;;;;;;;1.13;1.03;;;25.80;66.80;;;;;;5015801;28;20526;-81
2022/07/02 06:33:54;;;;;;;1.10;0.90;;;25.80;66.80;;;;;;5015778;28;20548;-82
2022/07/02 06:36:24;;;;;;;1.30;0.90;;;25.80;66.80;;;;;;5015716;28;20546;-81
2022/07/02 06:38:51;;;;;;;1.40;0.90;;;25.80;66.80;;;;;;5015401;28;20577;-81
2022/07/02 06:44:01;;;;;;;1.20;1.00;;;25.80;66.80;;;;;;5014210;28;20444;-82
2022/07/02 06:46:28;;;;;;;1.00;0.80;;;25.80;67.60;;;;;;5015215;28;20522;-88
2022/07/02 06:48:55;;;;;;;1.20;1.10;;;25.80;66.70;;;;;;5015247;28;20502;-88
2022/07/02 06:51:22;;;;;;;1.10;1.00;;;25.80;66.60;;;;;;5015253;28;20514;-82
2022/07/02 06:53:48;;;;;;;1.13;1.03;;;25.80;66.70;;;;;;5015257;28;20444;-88
2022/07/02 06:56:15;;;;;;;1.17;1.03;;;25.80;67.50;;;;;;5014910;28;20475;-81
2022/07/02 06:58:42;;;;;;;1.03;0.93;;;25.80;66.70;;;;;;5015356;28;20439;-81
2022/07/02 07:01:10;;;;;;;1.10;0.93;;;25.80;66.80;;;;;;5015157;28;20450;-89
2022/07/02 07:03:37;;;;;;;1.57;1.00;;;25.80;66.80;;;;;;5014718;28;20978;-88
2022/07/02 07:06:04;;;;;;;1.17;1.07;;;25.90;66.90;;;;;;5014811;28;20578;-84
2022/07/02 07:08:31;;;;;;;1.10;1.00;;;25.80;66.80;;;;;;5015235;28;20528;-82
2022/07/02 07:10:58;;;;;;;1.10;1.00;;;25.80;66.70;;;;;;5015566;28;20440;-82
2022/07/02 07:13:25;;;;;;;1.20;1.07;;;25.80;66.80;;;;;;5014910;28;20462;-81
2022/07/02 07:15:52;;;;;;;1.07;0.90;;;25.90;66.80;;;;;;5015073;28;20862;-82
2022/07/02 07:18:20;;;;;;;1.00;0.90;;;25.90;66.70;;;;;;5015011;28;20447;-82
2022/07/02 07:20:49;;;;;;;1.20;1.00;;;25.90;66.60;;;;;;5020657;28;20440;-82
2022/07/02 07:23:16;;;;;;;1.10;1.00;;;25.90;66.70;;;;;;5020537;28;20967;-81
2022/07/02 07:25:43;;;;;;;1.00;0.90;;;25.80;66.60;;;;;;5022239;28;20567;-80
2022/07/02 07:28:12;;;;;;;1.33;1.10;;;25.80;66.70;;;;;;5015808;28;20558;-81
2022/07/02 07:30:39;;;;;;;1.30;1.10;;;25.80;66.70;;;;;;5014769;28;20444;-81
2022/07/02 07:33:06;;;;;;;2.13;0.90;;;26.00;66.50;;;;;;5014608;28;20535;-89
2022/07/02 07:35:34;;;;;;;2.70;1.10;;;25.80;66.20;;;;;;5014632;28;20443;-82
2022/07/02 07:38:02;;;;;;;4.17;1.43;;;25.90;66.30;;;;;;5014249;28;20943;-86
2022/07/02 07:40:29;;;;;;;6.47;1.30;;;25.90;66.30;;;;;;5014319;28;20532;-83
2022/07/02 07:42:56;;;;;;;2.90;1.20;;;25.90;67.20;;;;;;5013889;28;20446;-82
2022/07/02 07:45:23;;;;;;;3.73;1.37;;;25.90;66.50;;;;;;5014217;28;21036;-82
2022/07/02 07:47:50;;;;;;;2.43;1.20;;;25.90;66.50;;;;;;5014467;28;20539;-82
2022/07/02 07:50:17;;;;;;;1.37;1.20;;;25.90;66.50;;;;;;5014059;28;20522;-81
2022/07/02 07:52:45;;;;;;;4.03;1.20;;;25.90;66.50;;;;;;5013919;28;21025;-81
2022/07/02 07:55:12;;;;;;;3.93;1.20;;;25.90;66.60;;;;;;5015003;28;20443;-82
2022/07/02 07:57:39;;;;;;;1.90;1.33;;;25.90;66.60;;;;;;5015750;28;20891;-83
2022/07/02 08:00:07;;;;;;;1.40;1.03;;;25.90;66.60;;;;;;5014327;28;20530;-81
2022/07/02 08:02:34;;;;;;;2.23;1.10;;;25.80;66.70;;;;;;5013749;28;20438;-81
2022/07/02 08:05:01;;;;;;;3.07;1.10;;;25.80;66.80;;;;;;5013786;28;20498;-88
2022/07/02 08:07:28;;;;;;;2.40;1.10;;;25.90;66.90;;;;;;5013701;28;20462;-81
2022/07/02 08:09:57;;;;;;;1.70;1.60;;;25.90;66.90;;;;;;5014027;28;20522;-81
2022/07/02 08:12:24;;;;;;;2.27;1.20;;;25.90;66.80;;;;;;5014188;28;20452;-82
2022/07/02 08:14:51;;;;;;;3.07;1.20;;;25.90;66.70;;;;;;5013571;28;20847;-82
2022/07/02 08:17:18;;;;;;;4.30;1.30;;;25.90;66.70;;;;;;5013761;28;20997;-90
2022/07/02 08:19:45;;;;;;;1.60;1.10;;;25.90;66.70;;;;;;5013738;28;20446;-89
2022/07/02 08:22:12;;;;;;;1.37;1.27;;;25.90;66.40;;;;;;5013145;28;20864;-82
2022/07/02 08:24:39;;;;;;;1.97;1.10;;;25.90;66.40;;;;;;5013484;28;20479;-88
2022/07/02 08:27:07;;;;;;;1.60;1.00;;;25.90;66.40;;;;;;5013483;28;20561;-88
2022/07/02 08:29:34;;;;;;;1.93;1.17;;;26.00;66.50;;;;;;5013646;28;20450;-88
2022/07/02 08:32:01;;;;;;;2.10;1.00;;;25.90;66.40;;;;;;5013716;28;20539;-87
2022/07/02 08:34:32;;;;;;;1.30;0.90;;;26.00;66.20;;;;;;5013102;28;20534;-81
2022/07/02 08:36:59;;;;;;;2.10;1.00;;;26.00;66.20;;;;;;4993327;28;20832;-82
2022/07/02 08:39:26;;;;;;;1.93;1.00;;;26.00;66.20;;;;;;4992997;28;20538;-82
2022/07/02 08:41:54;;;;;;;1.10;0.97;;;25.90;66.10;;;;;;4992884;28;20547;-82
2022/07/02 08:44:23;;;;;;;1.80;1.07;;;25.90;66.10;;;;;;4993100;28;20825;-83
2022/07/02 08:46:51;;;;;;;1.70;0.97;;;26.00;66.10;;;;;;4993285;28;21030;-82
2022/07/02 08:49:20;;;;;;;1.80;0.90;;;26.00;65.90;;;;;;4993591;28;20455;-82
2022/07/02 08:51:49;;;;;;;2.27;1.10;;;25.90;65.80;;;;;;4993354;28;20834;-82
2022/07/02 08:54:16;;;;;;;1.83;1.33;;;26.00;65.60;;;;;;4991807;28;20444;-89
2022/07/02 08:56:43;;;;;;;1.47;0.80;;;26.00;65.60;;;;;;4992419;28;20487;-89
2022/07/02 08:59:10;;;;;;;2.33;1.17;;;25.90;65.50;;;;;;4992246;28;21027;-82
2022/07/02 09:01:38;;;;;;;1.27;0.90;;;25.90;65.50;;;;;;4992165;28;20476;-80
2022/07/02 09:04:06;;;;;;;1.77;1.10;;;26.00;65.60;;;;;;4992043;28;20543;-82
2022/07/02 09:06:36;;;;;;;1.53;0.93;;;25.90;65.40;;;;;;4992099;28;20571;-82
2022/07/02 09:09:03;;;;;;;1.10;0.90;;;26.00;65.60;;;;;;4993334;28;20445;-82
2022/07/02 09:11:30;;;;;;;1.57;0.90;;;26.00;65.60;;;;;;4993643;28;20444;-82
2022/07/02 09:13:58;;;;;;;2.00;1.10;;;26.00;65.60;;;;;;4993563;28;20444;-86
2022/07/02 09:16:26;;;;;;;1.30;0.77;;;26.00;65.50;;;;;;4993861;28;20527;-82
2022/07/02 09:18:55;;;;;;;1.63;1.00;;;26.00;64.80;;;;;;4993194;28;20449;-81
2022/07/02 09:21:22;;;;;;;2.90;1.07;;;26.00;64.90;;;;;;4993431;28;20451;-85
2022/07/02 09:23:50;;;;;;;1.73;1.00;;;26.00;64.80;;;;;;4993740;28;20866;-84
2022/07/02 09:26:21;;;;;;;3.73;0.80;;;26.00;64.70;;;;;;4993527;28;20480;-82
2022/07/02 09:28:59;;;;;;;1.43;0.83;;;26.00;64.30;;;;;;4997320;28;20437;-83
2022/07/02 09:31:27;;;;;;;2.40;1.20;;;26.00;64.60;;;;;;4997078;28;20447;-82
2022/07/02 09:33:57;;;;;;;1.03;0.77;;;26.00;64.60;;;;;;4997028;28;20959;-89
2022/07/02 09:36:24;;;;;;;1.20;1.10;;;26.00;64.60;;;;;;4997070;28;20563;-82
2022/07/02 09:38:53;;;;;;;1.80;1.10;;;26.10;64.70;;;;;;4997064;28;20531;-82
2022/07/02 09:41:23;;;;;;;1.43;0.93;;;26.00;64.70;;;;;;4996845;28;20468;-89
2022/07/02 09:43:53;;;;;;;2.60;0.90;;;26.00;64.70;;;;;;4996942;28;20452;-82
2022/07/02 09:46:21;;;;;;;1.70;0.90;;;26.00;64.70;;;;;;4996901;28;20495;-81
2022/07/02 09:48:49;;;;;;;1.30;0.80;;;26.00;64.70;;;;;;4996853;28;20547;-82
2022/07/02 09:51:18;;;;;;;1.57;1.17;;;26.00;64.70;;;;;;4996683;28;20449;-83
2022/07/02 09:53:49;;;;;;;1.30;0.90;;;26.10;64.70;;;;;;4996720;28;20920;-90
2022/07/02 09:56:17;;;;;;;1.60;0.90;;;26.10;64.70;;;;;;4996952;28;20448;-82
2022/07/02 09:58:44;;;;;;;2.33;0.97;;;26.10;64.70;;;;;;4996577;28;20484;-83
2022/07/02 10:01:10;;;;;;;2.17;0.93;;;26.10;64.60;;;;;;4996655;28;20472;-88
2022/07/02 10:03:47;;;;;;;2.37;1.20;;;26.00;64.50;;;;;;4996794;28;20447;-80
2022/07/02 10:06:15;;;;;;;1.00;0.70;;;26.10;64.70;;;;;;4996240;28;20571;-81
2022/07/02 10:08:44;;;;;;;1.17;0.80;;;26.10;64.80;;;;;;4996560;28;20449;-88
2022/07/02 10:11:12;;;;;;;2.50;1.13;;;26.10;64.70;;;;;;4996591;28;20480;-87
2022/07/02 10:13:41;;;;;;;1.77;0.90;;;26.10;64.70;;;;;;4996646;28;20475;-83
2022/07/02 10:16:14;;;;;;;1.70;1.00;;;26.10;64.70;;;;;;4996412;28;20566;-89
2022/07/02 10:18:42;;;;;;;1.00;0.80;;;26.10;64.70;;;;;;4996473;28;20441;-83
2022/07/02 10:21:11;;;;;;;2.07;1.03;;;26.10;64.60;;;;;;4996475;28;20440;-83
2022/07/02 10:23:39;;;;;;;1.80;1.10;;;26.10;64.50;;;;;;4996230;28;20464;-82
2022/07/02 10:26:08;;;;;;;2.50;0.90;;;26.10;64.60;;;;;;4996084;28;20575;-80
2022/07/02 10:28:35;;;;;;;2.37;1.10;;;26.10;64.50;;;;;;4995902;28;20522;-82
2022/07/02 10:31:03;;;;;;;2.23;1.00;;;26.10;64.40;;;;;;4995984;28;20871;-88
2022/07/02 10:33:37;;;;;;;1.20;0.90;;;26.10;64.40;;;;;;4995992;28;20482;-83
2022/07/02 10:36:05;;;;;;;1.20;0.90;;;26.20;64.40;;;;;;4995820;28;20990;-83
2022/07/02 10:38:34;;;;;;;1.40;1.00;;;26.20;64.40;;;;;;4995416;28;20521;-83
2022/07/02 10:41:02;;;;;;;6.83;0.90;;;26.20;64.30;;;;;;4995758;28;20492;-86
2022/07/02 10:43:33;;;;;;;1.83;0.87;;;26.10;64.40;;;;;;4995836;28;20891;-84
2022/07/02 10:46:05;;;;;;;2.50;0.93;;;26.20;64.60;;;;;;4995732;28;20480;-87
2022/07/02 10:48:34;;;;;;;2.40;1.10;;;26.20;64.60;;;;;;4995617;28;20448;-83
2022/07/02 10:51:01;;;;;;;1.50;1.00;;;26.20;64.70;;;;;;4995648;28;20444;-85
2022/07/02 10:53:29;;;;;;;4.80;0.97;;;26.20;64.70;;;;;;4995601;28;20445;-83
2022/07/02 10:56:02;;;;;;;2.60;1.00;;;26.20;64.60;;;;;;4995371;28;20539;-83
2022/07/02 10:58:34;;;;;;;4.13;1.10;;;26.20;64.70;;;;;;4995632;28;20444;-84
2022/07/02 11:01:12;;;;;;;1.17;0.90;;;26.20;64.90;;;;;;4995401;28;20941;-87
2022/07/02 11:03:39;;;;;;;2.00;0.80;;;26.30;64.90;;;;;;4995688;28;20487;-84
2022/07/02 11:06:07;;;;;;;1.97;1.07;;;26.20;64.70;;;;;;4995242;28;20582;-84
2022/07/02 11:08:50;;;;;;;1.50;1.23;;;26.20;64.60;;;;;;4995326;28;20448;-84
2022/07/02 11:11:20;;;;;;;3.00;1.00;;;26.30;64.80;;;;;;4995414;28;20448;-80
2022/07/02 11:13:50;;;;;;;3.20;0.90;;;26.20;64.70;;;;;;4994953;28;20488;-84
2022/07/02 11:16:26;;;;;;;2.70;0.90;;;26.20;64.70;;;;;;4995100;28;20528;-84
2022/07/02 11:18:54;;;;;;;1.10;0.80;;;26.20;64.70;;;;;;4995366;28;20462;-85
2022/07/02 11:21:22;;;;;;;2.10;0.93;;;26.20;64.90;;;;;;4995239;28;20523;-84
2022/07/02 11:23:50;;;;;;;2.00;0.70;;;26.20;65.00;;;;;;4995229;28;20488;-85
2022/07/02 11:26:19;;;;;;;1.70;0.90;;;26.20;65.00;;;;;;4994528;28;20572;-82
2022/07/02 11:28:48;;;;;;;2.40;1.13;;;26.20;65.20;;;;;;4995079;28;21019;-89
2022/07/02 11:31:16;;;;;;;2.07;0.90;;;26.20;65.20;;;;;;4994848;28;20444;-81
2022/07/02 11:33:46;;;;;;;1.07;0.80;;;26.20;65.20;;;;;;4994783;28;21031;-81
2022/07/02 11:36:13;;;;;;;1.33;0.90;;;26.20;65.20;;;;;;4994739;28;20999;-85
2022/07/02 11:38:43;;;;;;;2.13;0.90;;;26.20;65.30;;;;;;4994846;28;20437;-81
2022/07/02 11:41:22;;;;;;;1.40;0.93;;;26.20;65.30;;;;;;4994835;28;20589;-86
2022/07/02 11:43:52;;;;;;;2.30;0.87;;;26.30;65.30;;;;;;4994694;28;20520;-82
2022/07/02 11:46:20;;;;;;;1.07;0.70;;;26.20;65.30;;;;;;4994295;28;20524;-83
2022/07/02 11:48:47;;;;;;;1.60;0.80;;;26.20;66.20;;;;;;4994587;28;20441;-82
2022/07/02 11:51:15;;;;;;;1.00;0.80;;;26.20;65.30;;;;;;4994225;28;20515;-82
2022/07/02 11:53:42;;;;;;;3.70;0.80;;;26.20;65.40;;;;;;4994451;28;20445;-86
2022/07/02 11:56:10;;;;;;;1.10;0.90;;;26.20;65.40;;;;;;4994270;28;20452;-83
2022/07/02 11:58:44;;;;;;;3.10;0.90;;;26.20;65.30;;;;;;4994710;28;20534;-82
2022/07/02 12:01:21;;;;;;;2.67;1.00;;;26.20;65.30;;;;;;4994568;28;20803;-85
2022/07/02 12:03:48;;;;;;;1.20;0.80;;;26.30;65.30;;;;;;4994777;28;20446;-86
2022/07/02 12:06:16;;;;;;;0.90;0.70;;;26.20;65.30;;;;;;4993880;28;20519;-82
2022/07/02 12:08:44;;;;;;;1.07;0.80;;;26.20;66.20;;;;;;4994314;28;20441;-83
2022/07/02 12:11:15;;;;;;;1.27;0.80;;;26.30;65.20;;;;;;4994607;28;20491;-82
2022/07/02 12:13:42;;;;;;;2.40;0.80;;;26.20;65.20;;;;;;4994376;28;20451;-87
2022/07/02 12:16:13;;;;;;;0.90;0.70;;;26.20;65.20;;;;;;4993959;28;20548;-82
2022/07/02 12:18:42;;;;;;;1.00;0.80;;;26.20;65.20;;;;;;4994171;28;20440;-82
2022/07/02 12:21:11;;;;;;;1.20;0.70;;;26.20;65.20;;;;;;4994062;28;20448;-83
2022/07/02 12:23:45;;;;;;;1.00;0.80;;;26.20;65.30;;;;;;4994093;28;20445;-85
2022/07/02 12:26:22;;;;;;;1.30;0.90;;;26.30;65.20;;;;;;4993675;28;20515;-83
2022/07/02 12:31:42;;;;;;;2.60;0.70;;;26.20;65.30;;;;;;4950771;28;20439;-82
2022/07/02 12:34:11;;;;;;;1.30;0.80;;;26.20;65.30;;;;;;4994119;28;20443;-88
2022/07/02 12:36:46;;;;;;;2.67;1.00;;;26.20;65.10;;;;;;4993806;28;20463;-83
2022/07/02 12:39:13;;;;;;;1.20;0.80;;;26.20;65.10;;;;;;4994271;28;20444;-83
2022/07/02 12:41:40;;;;;;;1.00;0.80;;;26.20;66.10;;;;;;4994041;28;20540;-83
2022/07/02 12:44:07;;;;;;;1.03;0.70;;;26.20;65.20;;;;;;4993777;28;21011;-82
2022/07/02 12:46:44;;;;;;;1.60;0.90;;;26.30;65.40;;;;;;4993850;28;20575;-83
2022/07/02 12:49:20;;;;;;;3.23;1.03;;;26.30;65.20;;;;;;4993842;28;20440;-88
2022/07/02 12:52:02;;;;;;;1.70;1.00;;;26.20;65.20;;;;;;4993885;28;20551;-83
2022/07/02 12:54:40;;;;;;;1.30;0.90;;;26.30;65.20;;;;;;4993831;28;20455;-83
2022/07/02 12:57:14;;;;;;;1.10;0.90;;;26.20;65.30;;;;;;4993745;28;20519;-82
2022/07/02 12:59:41;;;;;;;1.10;0.80;;;26.30;65.20;;;;;;4993923;28;20548;-83
2022/07/02 13:02:09;;;;;;;0.90;0.73;;;26.20;65.20;;;;;;4995694;28;20440;-84
2022/07/02 13:04:37;;;;;;;3.00;0.70;;;26.20;65.40;;;;;;4998162;28;20448;-85
2022/07/02 13:07:04;;;;;;;1.00;0.73;;;26.30;65.50;;;;;;4997984;28;20841;-85